createdAt,value
2018-12-07T00:00:23.598Z,10.91
2018-12-07T00:01:26.107Z,10.84
2018-12-07T00:02:28.632Z,10.79
2018-12-07T00:03:31.088Z,10.79
2018-12-07T00:04:33.556Z,10.75
2018-12-07T00:05:36.011Z,10.79
2018-12-07T00:06:38.484Z,10.71
2018-12-07T00:07:41.039Z,10.69
2018-12-07T00:08:43.487Z,10.72
2018-12-07T00:09:45.954Z,10.66
2018-12-07T00:10:48.420Z,10.67
2018-12-07T00:11:50.878Z,10.70
2018-12-07T00:12:53.337Z,10.71
2018-12-07T00:13:55.826Z,10.74
2018-12-07T00:14:58.376Z,10.77
2018-12-07T00:16:00.832Z,10.81
2018-12-07T00:17:03.281Z,10.81
2018-12-07T00:18:05.741Z,10.88
2018-12-07T00:19:08.197Z,10.89
2018-12-07T00:20:10.669Z,10.87
2018-12-07T00:21:13.118Z,10.80
2018-12-07T00:22:15.571Z,10.84
2018-12-07T00:23:18.028Z,10.85
2018-12-07T00:24:20.477Z,10.91
2018-12-07T00:25:23.658Z,10.97
2018-12-07T00:26:26.184Z,10.96
2018-12-07T00:27:28.638Z,10.97
2018-12-07T00:28:31.116Z,10.95
2018-12-07T00:29:33.562Z,10.88
2018-12-07T00:30:36.033Z,10.91
2018-12-07T00:31:38.504Z,10.85
2018-12-07T00:32:40.963Z,10.93
2018-12-07T00:33:43.439Z,10.95
2018-12-07T00:34:45.896Z,10.93
2018-12-07T00:35:48.359Z,10.98
2018-12-07T00:36:50.819Z,11.02
2018-12-07T00:37:53.293Z,11.03
2018-12-07T00:38:55.753Z,11.04
2018-12-07T00:39:58.204Z,11.05
2018-12-07T00:41:00.677Z,10.92
2018-12-07T00:42:03.147Z,10.90
2018-12-07T00:43:05.597Z,10.88
2018-12-07T00:44:08.074Z,10.94
2018-12-07T00:45:10.598Z,11.00
2018-12-07T00:46:13.112Z,11.05
2018-12-07T00:47:15.574Z,11.04
2018-12-07T00:48:18.039Z,11.06
2018-12-07T00:49:20.494Z,11.09
2018-12-07T00:50:22.927Z,11.08
2018-12-07T00:51:25.431Z,11.07
2018-12-07T00:52:27.914Z,11.13
2018-12-07T00:53:30.352Z,11.16
2018-12-07T00:54:32.822Z,11.15
2018-12-07T00:55:37.389Z,11.13
2018-12-07T00:56:39.850Z,11.09
2018-12-07T00:57:42.327Z,11.09
2018-12-07T00:58:44.774Z,11.09
2018-12-07T00:59:47.226Z,11.08
2018-12-07T01:00:49.716Z,11.07
2018-12-07T01:01:52.192Z,11.08
2018-12-07T01:02:54.652Z,11.12
2018-12-07T01:03:57.131Z,11.17
2018-12-07T01:04:59.579Z,11.15
2018-12-07T01:06:02.022Z,11.17
2018-12-07T01:07:04.476Z,11.18
2018-12-07T01:08:06.936Z,11.21
2018-12-07T01:09:09.389Z,11.17
2018-12-07T01:10:11.943Z,11.19
2018-12-07T01:11:14.443Z,11.19
2018-12-07T01:12:16.945Z,11.22
2018-12-07T01:13:19.562Z,11.25
2018-12-07T01:14:22.128Z,11.27
2018-12-07T01:15:24.586Z,11.29
2018-12-07T01:16:27.078Z,11.19
2018-12-07T01:17:29.556Z,11.29
2018-12-07T01:18:32.029Z,11.27
2018-12-07T01:19:34.480Z,11.28
2018-12-07T01:20:36.955Z,11.29
2018-12-07T01:21:39.415Z,11.18
2018-12-07T01:22:41.899Z,11.17
2018-12-07T01:23:44.370Z,11.08
2018-12-07T01:24:46.843Z,11.09
2018-12-07T01:25:49.353Z,11.10
2018-12-07T01:26:51.844Z,11.13
2018-12-07T01:27:54.358Z,11.14
2018-12-07T01:28:56.824Z,11.12
2018-12-07T01:29:59.276Z,11.09
2018-12-07T01:31:01.748Z,11.12
2018-12-07T01:32:04.202Z,11.14
2018-12-07T01:33:06.695Z,11.12
2018-12-07T01:34:09.147Z,11.09
2018-12-07T01:35:11.677Z,11.11
2018-12-07T01:36:14.256Z,11.06
2018-12-07T01:37:16.847Z,11.02
2018-12-07T01:38:19.333Z,11.01
2018-12-07T01:39:21.787Z,11.04
2018-12-07T01:40:24.257Z,10.97
2018-12-07T01:41:26.789Z,10.96
2018-12-07T01:42:29.275Z,10.99
2018-12-07T01:43:31.767Z,10.93
2018-12-07T01:44:34.234Z,10.93
2018-12-07T01:45:36.690Z,11.00
2018-12-07T01:46:39.251Z,11.00
2018-12-07T01:47:45.976Z,10.92
2018-12-07T01:48:48.445Z,10.94
2018-12-07T01:49:50.942Z,10.98
2018-12-07T01:50:53.404Z,10.99
2018-12-07T01:51:55.896Z,10.96
2018-12-07T01:52:58.458Z,11.00
2018-12-07T01:54:00.938Z,11.02
2018-12-07T01:55:03.606Z,11.04
2018-12-07T01:56:06.082Z,11.05
2018-12-07T01:57:08.558Z,11.00
2018-12-07T01:58:11.041Z,10.90
2018-12-07T01:59:13.525Z,10.92
2018-12-07T02:00:16.115Z,10.98
2018-12-07T02:01:18.567Z,10.98
2018-12-07T02:02:21.033Z,11.01
2018-12-07T02:03:23.625Z,10.98
2018-12-07T02:04:26.253Z,10.99
2018-12-07T02:05:28.721Z,11.00
2018-12-07T02:06:31.198Z,11.02
2018-12-07T02:07:34.344Z,11.02
2018-12-07T02:08:36.819Z,11.01
2018-12-07T02:09:39.302Z,11.01
2018-12-07T02:10:41.797Z,11.06
2018-12-07T02:11:44.352Z,11.10
2018-12-07T02:12:46.835Z,11.16
2018-12-07T02:13:49.294Z,11.16
2018-12-07T02:14:51.776Z,11.16
2018-12-07T02:15:54.237Z,11.16
2018-12-07T02:16:56.705Z,11.24
2018-12-07T02:17:59.143Z,11.25
2018-12-07T02:19:01.599Z,11.24
2018-12-07T02:20:04.753Z,11.23
2018-12-07T02:21:07.221Z,11.21
2018-12-07T02:22:09.680Z,11.23
2018-12-07T02:23:12.158Z,11.26
2018-12-07T02:24:14.607Z,11.27
2018-12-07T02:25:17.088Z,11.29
2018-12-07T02:26:19.556Z,11.34
2018-12-07T02:27:22.015Z,11.30
2018-12-07T02:28:24.469Z,11.26
2018-12-07T02:29:26.974Z,11.29
2018-12-07T02:30:29.459Z,11.32
2018-12-07T02:31:31.921Z,11.33
2018-12-07T02:32:34.360Z,11.35
2018-12-07T02:33:36.814Z,11.24
2018-12-07T02:34:39.278Z,11.22
2018-12-07T02:35:41.749Z,11.23
2018-12-07T02:36:44.211Z,11.22
2018-12-07T02:37:46.671Z,11.21
2018-12-07T02:38:49.116Z,11.22
2018-12-07T02:39:51.586Z,11.23
2018-12-07T02:40:54.028Z,11.21
2018-12-07T02:41:56.474Z,11.23
2018-12-07T02:42:58.915Z,11.18
2018-12-07T02:44:01.388Z,11.23
2018-12-07T02:45:04.834Z,11.24
2018-12-07T02:46:07.286Z,11.27
2018-12-07T02:47:09.734Z,11.32
2018-12-07T02:48:12.190Z,11.34
2018-12-07T02:49:14.644Z,11.37
2018-12-07T02:50:17.114Z,11.33
2018-12-07T02:51:19.569Z,11.29
2018-12-07T02:52:22.020Z,11.29
2018-12-07T02:53:24.571Z,10.80
2018-12-07T02:54:27.022Z,11.35
2018-12-07T02:55:29.494Z,11.36
2018-12-07T02:56:31.948Z,11.38
2018-12-07T02:57:34.396Z,11.40
2018-12-07T02:58:36.833Z,11.43
2018-12-07T02:59:39.291Z,11.40
2018-12-07T03:00:41.774Z,11.42
2018-12-07T03:01:44.217Z,11.43
2018-12-07T03:02:46.663Z,11.40
2018-12-07T03:03:49.131Z,11.30
2018-12-07T03:04:51.603Z,11.33
2018-12-07T03:05:54.065Z,11.36
2018-12-07T03:06:56.511Z,11.36
2018-12-07T03:07:58.973Z,11.41
2018-12-07T03:09:01.422Z,11.46
2018-12-07T03:10:05.353Z,11.48
2018-12-07T03:11:07.811Z,11.46
2018-12-07T03:12:10.264Z,11.48
2018-12-07T03:13:12.725Z,11.44
2018-12-07T03:14:15.342Z,11.44
2018-12-07T03:15:17.864Z,11.39
2018-12-07T03:16:20.394Z,11.31
2018-12-07T03:17:22.863Z,11.29
2018-12-07T03:18:30.692Z,11.33
2018-12-07T03:19:33.152Z,11.38
2018-12-07T03:20:36.785Z,11.41
2018-12-07T03:21:39.241Z,11.46
2018-12-07T03:22:41.694Z,11.52
2018-12-07T03:23:44.135Z,11.54
2018-12-07T03:24:46.628Z,11.51
2018-12-07T03:25:49.236Z,11.51
2018-12-07T03:26:51.751Z,11.56
2018-12-07T03:27:54.219Z,11.57
2018-12-07T03:28:56.655Z,11.59
2018-12-07T03:29:59.090Z,11.58
2018-12-07T03:31:01.543Z,11.56
2018-12-07T03:32:04.183Z,11.52
2018-12-07T03:33:06.661Z,11.55
2018-12-07T03:34:09.110Z,11.56
2018-12-07T03:35:11.652Z,11.61
2018-12-07T03:36:14.115Z,11.65
2018-12-07T03:37:16.575Z,11.64
2018-12-07T03:38:19.034Z,11.64
2018-12-07T03:39:21.499Z,11.48
2018-12-07T03:40:24.116Z,11.44
2018-12-07T03:41:26.607Z,11.43
2018-12-07T03:42:29.189Z,11.41
2018-12-07T03:43:31.648Z,11.40
2018-12-07T03:44:34.109Z,11.40
2018-12-07T03:45:36.683Z,11.41
2018-12-07T03:46:39.154Z,11.32
2018-12-07T03:47:41.623Z,11.33
2018-12-07T03:48:44.128Z,11.38
2018-12-07T03:49:46.579Z,11.33
2018-12-07T03:50:49.012Z,11.21
2018-12-07T03:51:51.469Z,11.17
2018-12-07T03:52:53.933Z,11.19
2018-12-07T03:53:56.396Z,11.25
2018-12-07T03:54:58.851Z,11.31
2018-12-07T03:56:01.409Z,11.34
2018-12-07T03:57:04.019Z,11.27
2018-12-07T03:58:06.472Z,11.29
2018-12-07T03:59:08.931Z,11.25
2018-12-07T04:00:11.614Z,11.24
2018-12-07T04:01:14.131Z,11.28
2018-12-07T04:02:16.575Z,11.23
2018-12-07T04:03:19.128Z,11.26
2018-12-07T04:04:21.694Z,11.26
2018-12-07T04:05:24.141Z,11.25
2018-12-07T04:06:26.587Z,11.25
2018-12-07T04:07:29.044Z,11.28
2018-12-07T04:08:31.508Z,11.29
2018-12-07T04:09:33.982Z,11.26
2018-12-07T04:10:36.416Z,11.31
2018-12-07T04:11:38.856Z,11.37
2018-12-07T04:12:41.339Z,11.43
2018-12-07T04:13:43.823Z,11.40
2018-12-07T04:14:46.296Z,11.43
2018-12-07T04:15:48.771Z,11.38
2018-12-07T04:16:51.721Z,11.39
2018-12-07T04:17:54.312Z,11.38
2018-12-07T04:18:56.790Z,11.41
2018-12-07T04:19:59.231Z,11.34
2018-12-07T04:21:01.707Z,11.38
2018-12-07T04:22:04.246Z,11.38
2018-12-07T04:23:11.184Z,11.42
2018-12-07T04:24:13.648Z,11.45
2018-12-07T04:25:16.113Z,11.35
2018-12-07T04:26:18.577Z,11.28
2018-12-07T04:27:21.138Z,11.23
2018-12-07T04:28:23.670Z,11.28
2018-12-07T04:29:26.154Z,11.19
2018-12-07T04:30:29.028Z,11.18
2018-12-07T04:31:31.474Z,11.24
2018-12-07T04:32:33.920Z,11.25
2018-12-07T04:33:36.375Z,11.28
2018-12-07T04:34:38.834Z,11.26
2018-12-07T04:35:41.313Z,11.26
2018-12-07T04:36:43.801Z,11.24
2018-12-07T04:37:46.262Z,11.23
2018-12-07T04:38:48.820Z,11.22
2018-12-07T04:39:51.380Z,11.25
2018-12-07T04:40:54.060Z,11.33
2018-12-07T04:41:56.499Z,11.27
2018-12-07T04:42:58.944Z,11.27
2018-12-07T04:44:01.423Z,11.30
2018-12-07T04:45:04.372Z,11.30
2018-12-07T04:46:06.960Z,11.29
2018-12-07T04:47:09.408Z,11.31
2018-12-07T04:48:11.888Z,11.27
2018-12-07T04:49:14.328Z,11.32
2018-12-07T04:50:16.783Z,11.30
2018-12-07T04:51:19.260Z,11.31
2018-12-07T04:52:21.711Z,11.26
2018-12-07T04:53:24.317Z,11.34
2018-12-07T04:54:26.773Z,11.36
2018-12-07T04:55:29.259Z,11.42
2018-12-07T04:56:33.663Z,11.41
2018-12-07T04:57:36.209Z,11.41
2018-12-07T04:58:38.666Z,11.36
2018-12-07T04:59:41.169Z,11.41
2018-12-07T05:00:43.647Z,11.38
2018-12-07T05:01:46.112Z,11.36
2018-12-07T05:02:48.581Z,11.40
2018-12-07T05:03:51.034Z,11.35
2018-12-07T05:04:53.552Z,11.34
2018-12-07T05:05:56.011Z,11.23
2018-12-07T05:06:58.464Z,11.25
2018-12-07T05:08:00.921Z,11.24
2018-12-07T05:09:05.439Z,11.32
2018-12-07T05:10:07.983Z,11.32
2018-12-07T05:11:10.443Z,11.34
2018-12-07T05:12:12.914Z,11.31
2018-12-07T05:13:15.404Z,11.34
2018-12-07T05:14:17.868Z,11.34
2018-12-07T05:15:20.321Z,11.32
2018-12-07T05:16:22.791Z,11.33
2018-12-07T05:17:25.256Z,11.32
2018-12-07T05:18:27.720Z,11.34
2018-12-07T05:19:30.154Z,11.36
2018-12-07T05:20:32.597Z,11.37
2018-12-07T05:21:35.055Z,11.42
2018-12-07T05:22:37.520Z,11.40
2018-12-07T05:23:39.974Z,11.34
2018-12-07T05:24:42.423Z,11.35
2018-12-07T05:25:44.873Z,11.37
2018-12-07T05:26:47.337Z,11.40
2018-12-07T05:27:49.800Z,11.42
2018-12-07T05:28:52.241Z,11.42
2018-12-07T05:29:54.698Z,11.48
2018-12-07T05:30:57.150Z,11.47
2018-12-07T05:31:59.634Z,11.52
2018-12-07T05:33:02.105Z,11.47
2018-12-07T05:34:04.560Z,11.39
2018-12-07T05:35:07.298Z,11.42
2018-12-07T05:36:09.834Z,11.47
2018-12-07T05:37:12.304Z,11.44
2018-12-07T05:38:14.805Z,11.48
2018-12-07T05:39:17.245Z,11.47
2018-12-07T05:40:19.696Z,11.50
2018-12-07T05:41:22.153Z,11.55
2018-12-07T05:42:24.621Z,11.53
2018-12-07T05:43:27.086Z,11.52
2018-12-07T05:44:29.528Z,11.58
2018-12-07T05:45:31.965Z,11.57
2018-12-07T05:46:34.417Z,11.54
2018-12-07T05:47:36.875Z,11.57
2018-12-07T05:48:39.324Z,11.60
2018-12-07T05:49:41.776Z,11.58
2018-12-07T05:50:44.245Z,11.61
2018-12-07T05:51:46.702Z,11.61
2018-12-07T05:52:49.164Z,11.59
2018-12-07T05:53:51.710Z,11.60
2018-12-07T05:54:54.287Z,11.64
2018-12-07T05:55:56.763Z,11.65
2018-12-07T05:56:59.327Z,11.62
2018-12-07T05:58:01.821Z,11.59
2018-12-07T05:59:04.503Z,11.61
2018-12-07T06:00:07.664Z,11.59
2018-12-07T06:01:10.309Z,11.56
2018-12-07T06:02:12.847Z,11.60
2018-12-07T06:03:15.305Z,11.62
2018-12-07T06:04:17.903Z,11.63
2018-12-07T06:05:20.428Z,11.67
2018-12-07T06:06:22.921Z,11.66
2018-12-07T06:07:25.391Z,11.66
2018-12-07T06:08:27.987Z,11.63
2018-12-07T06:09:30.540Z,11.63
2018-12-07T06:10:33.023Z,11.66
2018-12-07T06:11:35.472Z,11.68
2018-12-07T06:12:38.155Z,11.65
2018-12-07T06:13:40.715Z,11.67
2018-12-07T06:14:43.207Z,11.69
2018-12-07T06:15:45.676Z,11.72
2018-12-07T06:16:48.408Z,11.74
2018-12-07T06:17:50.908Z,11.75
2018-12-07T06:18:53.372Z,11.71
2018-12-07T06:19:55.946Z,11.72
2018-12-07T06:20:58.416Z,11.74
2018-12-07T06:22:00.916Z,11.72
2018-12-07T06:23:03.384Z,11.73
2018-12-07T06:24:05.848Z,11.73
2018-12-07T06:25:08.331Z,11.75
2018-12-07T06:26:10.811Z,11.78
2018-12-07T06:27:13.776Z,11.78
2018-12-07T06:28:16.502Z,11.79
2018-12-07T06:29:18.966Z,11.83
2018-12-07T06:30:21.508Z,11.82
2018-12-07T06:31:24.006Z,11.83
2018-12-07T06:32:26.532Z,11.76
2018-12-07T06:33:29.187Z,11.78
2018-12-07T06:34:31.666Z,11.78
2018-12-07T06:35:34.274Z,11.78
2018-12-07T06:36:36.773Z,11.80
2018-12-07T06:37:39.244Z,11.80
2018-12-07T06:38:41.708Z,11.80
2018-12-07T06:39:44.319Z,11.81
2018-12-07T06:40:46.897Z,11.82
2018-12-07T06:41:49.407Z,11.73
2018-12-07T06:42:52.088Z,11.75
2018-12-07T06:43:54.608Z,11.76
2018-12-07T06:44:57.092Z,11.76
2018-12-07T06:45:59.612Z,11.76
2018-12-07T06:47:02.070Z,11.77
2018-12-07T06:48:04.518Z,11.78
2018-12-07T06:49:08.347Z,11.78
2018-12-07T06:50:10.912Z,11.79
2018-12-07T06:51:13.381Z,11.81
2018-12-07T06:52:15.815Z,11.78
2018-12-07T06:53:18.322Z,11.78
2018-12-07T06:54:20.809Z,11.74
2018-12-07T06:55:23.286Z,11.67
2018-12-07T06:56:25.769Z,11.70
2018-12-07T06:57:28.228Z,11.72
2018-12-07T06:58:30.691Z,11.71
2018-12-07T06:59:33.159Z,11.75
2018-12-07T07:00:35.629Z,11.73
2018-12-07T07:01:38.167Z,11.69
2018-12-07T07:02:40.669Z,11.68
2018-12-07T07:03:43.107Z,11.70
2018-12-07T07:04:45.581Z,11.72
2018-12-07T07:05:48.075Z,11.66
2018-12-07T07:06:50.544Z,11.68
2018-12-07T07:07:53.081Z,11.68
2018-12-07T07:08:55.531Z,11.71
2018-12-07T07:09:58.040Z,11.61
2018-12-07T07:11:00.533Z,11.62
2018-12-07T07:12:03.016Z,11.56
2018-12-07T07:13:05.644Z,11.56
2018-12-07T07:14:08.157Z,11.56
2018-12-07T07:15:10.844Z,11.57
2018-12-07T07:16:13.378Z,11.55
2018-12-07T07:17:15.852Z,11.61
2018-12-07T07:18:18.321Z,11.67
2018-12-07T07:19:20.764Z,11.69
2018-12-07T07:20:23.310Z,11.61
2018-12-07T07:21:25.864Z,11.61
2018-12-07T07:22:28.325Z,11.61
2018-12-07T07:23:30.777Z,11.57
2018-12-07T07:24:33.242Z,11.55
2018-12-07T07:25:35.708Z,11.60
2018-12-07T07:26:38.193Z,11.63
2018-12-07T07:27:40.654Z,11.63
2018-12-07T07:28:43.124Z,11.56
2018-12-07T07:29:46.029Z,11.56
2018-12-07T07:30:48.473Z,11.61
2018-12-07T07:31:50.941Z,11.64
2018-12-07T07:32:53.523Z,11.67
2018-12-07T07:33:56.024Z,11.67
2018-12-07T07:34:58.486Z,11.66
2018-12-07T07:36:00.969Z,11.68
2018-12-07T07:37:03.445Z,11.71
2018-12-07T07:38:06.499Z,11.71
2018-12-07T07:39:08.952Z,11.73
2018-12-07T07:40:11.410Z,11.77
2018-12-07T07:41:13.905Z,11.83
2018-12-07T07:42:16.394Z,11.86
2018-12-07T07:43:18.871Z,11.79
2018-12-07T07:44:21.336Z,11.72
2018-12-07T07:45:23.792Z,11.77
2018-12-07T07:46:26.298Z,11.75
2018-12-07T07:47:28.780Z,11.79
2018-12-07T07:48:31.256Z,11.83
2018-12-07T07:49:33.740Z,11.79
2018-12-07T07:50:36.206Z,11.82
2018-12-07T07:51:38.655Z,11.90
2018-12-07T07:52:41.234Z,11.88
2018-12-07T07:53:43.701Z,11.88
2018-12-07T07:54:46.245Z,11.89
2018-12-07T07:55:48.857Z,11.88
2018-12-07T07:56:51.335Z,11.94
2018-12-07T07:57:53.901Z,11.89
2018-12-07T07:58:56.408Z,11.96
2018-12-07T07:59:58.899Z,12.02
2018-12-07T08:01:01.355Z,12.05
2018-12-07T08:02:04.063Z,12.11
2018-12-07T08:03:06.567Z,12.09
2018-12-07T08:04:09.061Z,12.08
2018-12-07T08:05:11.530Z,12.10
2018-12-07T08:06:14.045Z,12.04
2018-12-07T08:07:16.517Z,12.08
2018-12-07T08:08:19.115Z,12.04
2018-12-07T08:09:21.600Z,11.99
2018-12-07T08:10:24.051Z,11.87
2018-12-07T08:11:26.513Z,11.94
2018-12-07T08:12:28.974Z,11.93
2018-12-07T08:13:31.530Z,11.96
2018-12-07T08:14:34.160Z,11.95
2018-12-07T08:15:36.643Z,11.96
2018-12-07T08:16:39.101Z,11.91
2018-12-07T08:17:41.588Z,11.91
2018-12-07T08:18:44.067Z,11.99
2018-12-07T08:19:47.272Z,12.04
2018-12-07T08:20:49.721Z,12.01
2018-12-07T08:21:52.167Z,11.97
2018-12-07T08:22:54.620Z,11.91
2018-12-07T08:23:57.095Z,11.97
2018-12-07T08:24:59.552Z,12.01
2018-12-07T08:26:01.996Z,11.98
2018-12-07T08:27:04.446Z,12.03
2018-12-07T08:28:06.915Z,11.99
2018-12-07T08:29:09.384Z,12.02
2018-12-07T08:30:12.211Z,12.07
2018-12-07T08:31:14.660Z,12.07
2018-12-07T08:32:17.113Z,12.06
2018-12-07T08:33:19.576Z,12.06
2018-12-07T08:34:22.037Z,12.03
2018-12-07T08:35:24.498Z,12.03
2018-12-07T08:36:26.956Z,12.07
2018-12-07T08:37:29.425Z,12.14
2018-12-07T08:38:31.872Z,12.19
2018-12-07T08:39:34.440Z,12.24
2018-12-07T08:40:36.943Z,12.27
2018-12-07T08:41:39.413Z,12.22
2018-12-07T08:42:41.948Z,12.16
2018-12-07T08:43:44.408Z,12.11
2018-12-07T08:44:46.887Z,12.15
2018-12-07T08:45:49.360Z,12.19
2018-12-07T08:46:51.817Z,12.20
2018-12-07T08:47:54.260Z,12.21
2018-12-07T08:48:56.698Z,12.20
2018-12-07T08:49:59.170Z,12.22
2018-12-07T08:51:01.640Z,12.26
2018-12-07T08:52:04.092Z,12.33
2018-12-07T08:53:09.620Z,12.40
2018-12-07T08:54:12.060Z,12.48
2018-12-07T08:55:14.526Z,12.53
2018-12-07T08:56:16.981Z,12.57
2018-12-07T08:57:19.423Z,12.58
2018-12-07T08:58:21.890Z,12.62
2018-12-07T08:59:24.336Z,12.56
2018-12-07T09:00:26.807Z,12.57
2018-12-07T09:01:29.285Z,12.59
2018-12-07T09:02:31.754Z,12.58
2018-12-07T09:03:34.277Z,12.61
2018-12-07T09:04:36.784Z,12.60
2018-12-07T09:05:39.277Z,12.51
2018-12-07T09:06:41.735Z,12.53
2018-12-07T09:07:44.209Z,12.54
2018-12-07T09:08:46.652Z,12.50
2018-12-07T09:09:49.099Z,12.52
2018-12-07T09:10:51.590Z,12.52
2018-12-07T09:11:54.034Z,12.53
2018-12-07T09:12:56.488Z,12.57
2018-12-07T09:13:58.944Z,12.54
2018-12-07T09:15:01.399Z,12.49
2018-12-07T09:16:03.975Z,12.49
2018-12-07T09:17:06.454Z,12.53
2018-12-07T09:18:08.921Z,12.53
2018-12-07T09:19:11.385Z,12.54
2018-12-07T09:20:13.847Z,12.59
2018-12-07T09:21:16.324Z,12.62
2018-12-07T09:22:18.785Z,12.65
2018-12-07T09:23:21.242Z,12.71
2018-12-07T09:24:23.730Z,12.75
2018-12-07T09:25:26.184Z,12.81
2018-12-07T09:26:28.651Z,12.86
2018-12-07T09:27:31.181Z,12.86
2018-12-07T09:28:33.669Z,12.85
2018-12-07T09:29:36.129Z,12.84
2018-12-07T09:30:38.590Z,12.59
2018-12-07T09:31:41.058Z,12.62
2018-12-07T09:32:43.549Z,12.65
2018-12-07T09:33:46.057Z,12.68
2018-12-07T09:34:48.499Z,12.65
2018-12-07T09:35:50.942Z,12.68
2018-12-07T09:36:53.415Z,12.61
2018-12-07T09:37:55.864Z,12.63
2018-12-07T09:38:58.313Z,12.67
2018-12-07T09:40:00.776Z,12.70
2018-12-07T09:41:03.268Z,12.72
2018-12-07T09:42:05.772Z,12.67
2018-12-07T09:43:08.239Z,12.68
2018-12-07T09:44:10.686Z,12.73
2018-12-07T09:45:13.227Z,12.75
2018-12-07T09:46:15.675Z,12.74
2018-12-07T09:47:18.168Z,12.72
2018-12-07T09:48:20.628Z,12.76
2018-12-07T09:49:23.195Z,12.74
2018-12-07T09:50:25.667Z,12.77
2018-12-07T09:51:28.098Z,12.82
2018-12-07T09:52:30.595Z,12.76
2018-12-07T09:53:34.478Z,12.78
2018-12-07T09:54:37.205Z,12.78
2018-12-07T09:55:39.678Z,12.78
2018-12-07T09:56:42.127Z,12.71
2018-12-07T09:57:44.612Z,12.61
2018-12-07T09:58:47.215Z,12.61
2018-12-07T09:59:49.671Z,12.67
2018-12-07T10:00:52.113Z,12.72
2018-12-07T10:01:54.609Z,12.78
2018-12-07T10:02:57.108Z,12.84
2018-12-07T10:03:59.650Z,12.79
2018-12-07T10:05:02.139Z,12.78
2018-12-07T10:06:04.954Z,12.83
2018-12-07T10:07:07.399Z,12.89
2018-12-07T10:08:09.872Z,12.91
2018-12-07T10:09:12.394Z,12.88
2018-12-07T10:10:14.922Z,12.68
2018-12-07T10:11:17.413Z,12.69
2018-12-07T10:12:19.892Z,12.67
2018-12-07T10:13:22.432Z,12.69
2018-12-07T10:14:24.909Z,12.76
2018-12-07T10:15:27.405Z,12.76
2018-12-07T10:16:29.874Z,12.79
2018-12-07T10:17:32.355Z,12.75
2018-12-07T10:18:34.820Z,12.82
2018-12-07T10:19:37.276Z,12.82
2018-12-07T10:20:39.723Z,12.89
2018-12-07T10:21:42.219Z,12.93
2018-12-07T10:22:44.730Z,12.95
2018-12-07T10:23:47.197Z,12.95
2018-12-07T10:24:49.750Z,12.82
2018-12-07T10:25:52.209Z,12.80
2018-12-07T10:26:56.972Z,12.84
2018-12-07T10:27:59.464Z,12.89
2018-12-07T10:29:01.943Z,12.96
2018-12-07T10:30:05.007Z,13.02
2018-12-07T10:31:07.456Z,13.07
2018-12-07T10:32:09.907Z,13.12
2018-12-07T10:33:12.364Z,13.12
2018-12-07T10:34:14.848Z,13.14
2018-12-07T10:35:17.336Z,13.10
2018-12-07T10:36:19.801Z,12.84
2018-12-07T10:37:22.277Z,12.80
2018-12-07T10:38:24.806Z,12.69
2018-12-07T10:39:27.285Z,12.70
2018-12-07T10:40:29.768Z,12.72
2018-12-07T10:41:32.213Z,12.79
2018-12-07T10:42:34.719Z,12.83
2018-12-07T10:43:37.178Z,12.72
2018-12-07T10:44:39.736Z,12.69
2018-12-07T10:45:42.217Z,12.71
2018-12-07T10:46:44.685Z,12.72
2018-12-07T10:47:50.265Z,12.73
2018-12-07T10:48:51.656Z,12.67
2018-12-07T10:49:54.139Z,12.59
2018-12-07T10:50:56.598Z,12.62
2018-12-07T10:51:59.200Z,12.65
2018-12-07T10:53:01.695Z,12.69
2018-12-07T10:54:04.185Z,12.66
2018-12-07T10:55:08.072Z,12.59
2018-12-07T10:56:10.768Z,12.56
2018-12-07T10:57:13.276Z,12.58
2018-12-07T10:58:15.776Z,12.60
2018-12-07T10:59:18.626Z,12.72
2018-12-07T11:00:26.697Z,12.82
2018-12-07T11:01:34.872Z,12.88
2018-12-07T11:02:43.106Z,12.95
2018-12-07T11:03:51.327Z,13.00
2018-12-07T11:04:59.341Z,13.00
2018-12-07T11:06:07.512Z,13.05
2018-12-07T11:07:15.586Z,13.09
2018-12-07T11:08:23.629Z,13.02
2018-12-07T11:11:12.060Z,12.78
2018-12-07T11:13:56.781Z,12.83
2018-12-07T11:15:05.003Z,12.93
2018-12-07T11:16:13.035Z,12.96
2018-12-07T11:17:21.243Z,12.99
2018-12-07T11:18:29.355Z,13.01
2018-12-07T11:19:37.607Z,13.09
2018-12-07T11:22:25.344Z,13.07
2018-12-07T11:25:11.176Z,12.79
2018-12-07T11:26:19.279Z,12.83
2018-12-07T11:27:27.371Z,12.89
2018-12-07T11:28:35.550Z,12.98
2018-12-07T11:29:43.687Z,13.02
2018-12-07T11:30:51.734Z,13.03
2018-12-07T11:32:00.003Z,13.04
2018-12-07T11:33:08.062Z,13.00
2018-12-07T11:34:12.615Z,13.01
2018-12-07T11:35:16.755Z,13.08
2018-12-07T11:36:19.207Z,13.14
2018-12-07T11:37:21.686Z,13.17
2018-12-07T11:38:24.160Z,13.24
2018-12-07T11:39:26.629Z,13.21
2018-12-07T11:40:29.099Z,13.16
2018-12-07T11:41:31.577Z,13.18
2018-12-07T11:42:34.050Z,13.11
2018-12-07T11:43:36.521Z,13.19
2018-12-07T11:44:38.973Z,13.20
2018-12-07T11:45:41.438Z,13.18
2018-12-07T11:46:43.907Z,13.16
2018-12-07T11:47:46.392Z,13.01
2018-12-07T11:48:48.851Z,13.06
2018-12-07T11:49:51.338Z,13.09
2018-12-07T11:50:53.791Z,13.03
2018-12-07T11:51:56.255Z,12.94
2018-12-07T11:52:58.726Z,12.97
2018-12-07T11:54:01.190Z,12.99
2018-12-07T11:55:05.312Z,13.09
2018-12-07T11:56:07.773Z,13.11
2018-12-07T11:57:10.223Z,13.19
2018-12-07T11:58:12.696Z,13.22
2018-12-07T11:59:15.210Z,13.33
2018-12-07T12:00:17.700Z,13.42
2018-12-07T12:01:20.316Z,13.43
2018-12-07T12:02:26.289Z,13.49
2018-12-07T12:03:27.313Z,13.51
2018-12-07T12:04:29.791Z,13.42
2018-12-07T12:05:32.255Z,13.29
2018-12-07T12:06:34.738Z,13.20
2018-12-07T12:07:37.226Z,13.24
2018-12-07T12:08:39.825Z,13.28
2018-12-07T12:09:42.266Z,13.21
2018-12-07T12:10:44.783Z,13.13
2018-12-07T12:11:47.303Z,13.07
2018-12-07T12:12:49.810Z,13.09
2018-12-07T12:13:52.304Z,13.16
2018-12-07T12:14:54.782Z,13.25
2018-12-07T12:15:57.324Z,13.35
2018-12-07T12:16:59.788Z,13.41
2018-12-07T12:18:02.264Z,13.45
2018-12-07T12:19:04.725Z,13.43
2018-12-07T12:20:08.363Z,13.43
2018-12-07T12:21:10.853Z,13.39
2018-12-07T12:22:13.345Z,13.29
2018-12-07T12:23:15.819Z,13.28
2018-12-07T12:24:18.278Z,13.28
2018-12-07T12:25:20.789Z,13.34
2018-12-07T12:26:23.249Z,13.36
2018-12-07T12:27:25.692Z,13.48
2018-12-07T12:28:28.205Z,13.56
2018-12-07T12:29:30.690Z,13.64
2018-12-07T12:30:33.153Z,13.74
2018-12-07T12:31:35.604Z,13.81
2018-12-07T12:32:38.054Z,13.90
2018-12-07T12:33:40.524Z,13.89
2018-12-07T12:34:42.995Z,13.94
2018-12-07T12:35:45.464Z,13.78
2018-12-07T12:36:47.904Z,13.85
2018-12-07T12:37:50.351Z,13.97
2018-12-07T12:38:52.796Z,14.07
2018-12-07T12:39:55.285Z,14.03
2018-12-07T12:40:57.736Z,14.05
2018-12-07T12:42:00.188Z,13.98
2018-12-07T12:43:02.641Z,14.00
2018-12-07T12:44:05.092Z,14.09
2018-12-07T12:45:07.645Z,14.18
2018-12-07T12:46:10.105Z,14.26
2018-12-07T12:47:12.542Z,14.36
2018-12-07T12:48:15.210Z,14.43
2018-12-07T12:49:17.659Z,14.52
2018-12-07T12:50:25.819Z,14.55
2018-12-07T12:51:28.268Z,14.56
2018-12-07T12:52:30.787Z,14.62
2018-12-07T12:53:33.283Z,14.49
2018-12-07T12:54:35.733Z,14.43
2018-12-07T12:55:38.188Z,14.33
2018-12-07T12:56:40.635Z,14.36
2018-12-07T12:57:43.259Z,14.44
2018-12-07T12:58:45.709Z,14.51
2018-12-07T12:59:48.487Z,14.49
2018-12-07T13:00:50.955Z,14.49
2018-12-07T13:01:53.447Z,14.52
2018-12-07T13:02:55.944Z,14.57
2018-12-07T13:03:58.388Z,14.60
2018-12-07T13:05:00.856Z,14.37
2018-12-07T13:06:03.329Z,14.37
2018-12-07T13:07:05.946Z,14.36
2018-12-07T13:08:08.402Z,14.33
2018-12-07T13:09:10.849Z,14.29
2018-12-07T13:10:13.589Z,14.23
2018-12-07T13:11:17.180Z,14.27
2018-12-07T13:12:19.742Z,14.31
2018-12-07T13:13:22.193Z,14.36
2018-12-07T13:14:24.839Z,14.38
2018-12-07T13:15:27.391Z,14.40
2018-12-07T13:16:29.880Z,14.37
2018-12-07T13:17:32.380Z,14.38
2018-12-07T13:18:34.820Z,14.37
2018-12-07T13:19:37.296Z,14.38
2018-12-07T13:20:39.741Z,14.39
2018-12-07T13:21:42.207Z,14.41
2018-12-07T13:22:44.668Z,14.43
2018-12-07T13:23:47.133Z,14.41
2018-12-07T13:24:49.599Z,14.45
2018-12-07T13:25:52.056Z,14.48
2018-12-07T13:26:54.559Z,14.52
2018-12-07T13:27:57.033Z,14.54
2018-12-07T13:28:59.504Z,14.49
2018-12-07T13:30:01.976Z,14.48
2018-12-07T13:31:04.470Z,14.44
2018-12-07T13:32:07.088Z,14.43
2018-12-07T13:33:09.624Z,14.44
2018-12-07T13:34:12.112Z,14.43